<?xml version="1.0" encoding="UTF-8" standalone="no" ?>
<gpx xmlns="http://www.topografix.com/GPX/1/1" xmlns:xsi="http://www.w3.org/2001/XMLSchema-instance" xsi:schemaLocation="http://www.topografix.com/GPX/1/1 http://www.topografix.com/GPX/1/1/gpx.xsd" version="1.1" creator="VisuGPX - https://www.visugpx.com">
  <metadata>
    <name>Trace Gravienne avec départ de La Mothe</name>
  </metadata>
  <trk>
    <name><![CDATA[Trace Gravienne avec départ de La Mothe_2]]></name>
    <trkseg>
      <trkpt lat="46.5754" lon="0.34695">
        <ele>75.52</ele>
        <time>2023-06-07T19:23:00.756Z</time>
      </trkpt>
      <trkpt lat="46.57551" lon="0.34724">
        <ele>75.52</ele>
        <time>2023-06-07T19:23:02.464Z</time>
      </trkpt>
      <trkpt lat="46.57554" lon="0.34733">
        <ele>75.5</ele>
        <time>2023-06-07T19:23:04.173Z</time>
      </trkpt>
      <trkpt lat="46.57561" lon="0.34746">
        <ele>75.48</ele>
        <time>2023-06-07T19:23:05.884Z</time>
      </trkpt>
      <trkpt lat="46.57568" lon="0.34778">
        <ele>75.44</ele>
        <time>2023-06-07T19:23:07.599Z</time>
      </trkpt>
      <trkpt lat="46.57575" lon="0.34793">
        <ele>75.41</ele>
        <time>2023-06-07T19:23:09.316Z</time>
      </trkpt>
      <trkpt lat="46.57576" lon="0.34797">
        <ele>75.41</ele>
        <time>2023-06-07T19:23:11.033Z</time>
      </trkpt>
      <trkpt lat="46.57579" lon="0.34812">
        <ele>75.41</ele>
        <time>2023-06-07T19:23:12.752Z</time>
      </trkpt>
      <trkpt lat="46.5759" lon="0.3484">
        <ele>75.41</ele>
        <time>2023-06-07T19:23:14.474Z</time>
      </trkpt>
      <trkpt lat="46.57596" lon="0.34862">
        <ele>75.42</ele>
        <time>2023-06-07T19:23:16.199Z</time>
      </trkpt>
      <trkpt lat="46.57602" lon="0.34883">
        <ele>75.43</ele>
        <time>2023-06-07T19:23:17.927Z</time>
      </trkpt>
      <trkpt lat="46.57609" lon="0.34897">
        <ele>75.44</ele>
        <time>2023-06-07T19:23:19.656Z</time>
      </trkpt>
      <trkpt lat="46.57614" lon="0.34913">
        <ele>75.46</ele>
        <time>2023-06-07T19:23:21.387Z</time>
      </trkpt>
      <trkpt lat="46.57618" lon="0.34924">
        <ele>75.45</ele>
        <time>2023-06-07T19:23:23.120Z</time>
      </trkpt>
      <trkpt lat="46.57622" lon="0.34936">
        <ele>75.4</ele>
        <time>2023-06-07T19:23:24.854Z</time>
      </trkpt>
      <trkpt lat="46.57628" lon="0.34955">
        <ele>75.28</ele>
        <time>2023-06-07T19:23:26.591Z</time>
      </trkpt>
      <trkpt lat="46.57629" lon="0.3496">
        <ele>75.26</ele>
        <time>2023-06-07T19:23:28.328Z</time>
      </trkpt>
      <trkpt lat="46.57633" lon="0.34978">
        <ele>75.21</ele>
        <time>2023-06-07T19:23:30.067Z</time>
      </trkpt>
      <trkpt lat="46.57636" lon="0.3499">
        <ele>75.22</ele>
        <time>2023-06-07T19:23:31.808Z</time>
      </trkpt>
      <trkpt lat="46.57637" lon="0.34994">
        <ele>75.23</ele>
        <time>2023-06-07T19:23:33.549Z</time>
      </trkpt>
      <trkpt lat="46.57644" lon="0.35013">
        <ele>75.29</ele>
        <time>2023-06-07T19:23:35.292Z</time>
      </trkpt>
      <trkpt lat="46.57648" lon="0.35024">
        <ele>75.31</ele>
        <time>2023-06-07T19:23:37.037Z</time>
      </trkpt>
      <trkpt lat="46.57651" lon="0.35031">
        <ele>75.29</ele>
        <time>2023-06-07T19:23:38.783Z</time>
      </trkpt>
      <trkpt lat="46.57652" lon="0.35036">
        <ele>75.29</ele>
        <time>2023-06-07T19:23:40.529Z</time>
      </trkpt>
      <trkpt lat="46.57661" lon="0.35065">
        <ele>75.2</ele>
        <time>2023-06-07T19:23:42.279Z</time>
      </trkpt>
      <trkpt lat="46.5767" lon="0.35093">
        <ele>75.23</ele>
        <time>2023-06-07T19:23:44.032Z</time>
      </trkpt>
      <trkpt lat="46.57683" lon="0.35123">
        <ele>75.28</ele>
        <time>2023-06-07T19:23:45.789Z</time>
      </trkpt>
      <trkpt lat="46.57686" lon="0.35125">
        <ele>75.29</ele>
        <time>2023-06-07T19:23:47.547Z</time>
      </trkpt>
      <trkpt lat="46.57688" lon="0.35127">
        <ele>75.32</ele>
        <time>2023-06-07T19:23:49.305Z</time>
      </trkpt>
      <trkpt lat="46.57694" lon="0.35129">
        <ele>75.41</ele>
        <time>2023-06-07T19:23:51.064Z</time>
      </trkpt>
      <trkpt lat="46.57707" lon="0.35133">
        <ele>75.63</ele>
        <time>2023-06-07T19:23:52.825Z</time>
      </trkpt>
      <trkpt lat="46.57709" lon="0.35134">
        <ele>75.71</ele>
        <time>2023-06-07T19:23:54.586Z</time>
      </trkpt>
      <trkpt lat="46.57712" lon="0.35137">
        <ele>75.82</ele>
        <time>2023-06-07T19:23:56.348Z</time>
      </trkpt>
      <trkpt lat="46.57724" lon="0.35149">
        <ele>76.94</ele>
        <time>2023-06-07T19:23:58.112Z</time>
      </trkpt>
      <trkpt lat="46.57726" lon="0.35151">
        <ele>77.43</ele>
        <time>2023-06-07T19:23:59.877Z</time>
      </trkpt>
      <trkpt lat="46.57729" lon="0.35154">
        <ele>77.85</ele>
        <time>2023-06-07T19:24:01.642Z</time>
      </trkpt>
      <trkpt lat="46.57733" lon="0.3516">
        <ele>78.6</ele>
        <time>2023-06-07T19:24:03.408Z</time>
      </trkpt>
      <trkpt lat="46.57733" lon="0.35161">
        <ele>79.25</ele>
        <time>2023-06-07T19:24:05.174Z</time>
      </trkpt>
      <trkpt lat="46.57735" lon="0.35164">
        <ele>79.62</ele>
        <time>2023-06-07T19:24:06.941Z</time>
      </trkpt>
      <trkpt lat="46.57735" lon="0.35164">
        <ele>79.62</ele>
        <time>2023-06-07T19:24:08.708Z</time>
      </trkpt>
      <trkpt lat="46.57733" lon="0.35165">
        <ele>79.68</ele>
        <time>2023-06-07T19:24:10.475Z</time>
      </trkpt>
      <trkpt lat="46.57737" lon="0.3518">
        <ele>80.09</ele>
        <time>2023-06-07T19:24:12.244Z</time>
      </trkpt>
      <trkpt lat="46.57739" lon="0.35187">
        <ele>80.07</ele>
        <time>2023-06-07T19:24:14.014Z</time>
      </trkpt>
      <trkpt lat="46.57738" lon="0.35188">
        <ele>80.07</ele>
        <time>2023-06-07T19:24:15.784Z</time>
      </trkpt>
      <trkpt lat="46.57734" lon="0.35192">
        <ele>80.09</ele>
        <time>2023-06-07T19:24:17.555Z</time>
      </trkpt>
      <trkpt lat="46.57735" lon="0.35191">
        <ele>80.09</ele>
        <time>2023-06-07T19:24:19.326Z</time>
      </trkpt>
      <trkpt lat="46.57737" lon="0.35189">
        <ele>80.2</ele>
        <time>2023-06-07T19:24:21.097Z</time>
      </trkpt>
      <trkpt lat="46.57756" lon="0.35162">
        <ele>80.46</ele>
        <time>2023-06-07T19:24:22.873Z</time>
      </trkpt>
      <trkpt lat="46.57763" lon="0.35153">
        <ele>80.51</ele>
        <time>2023-06-07T19:24:24.650Z</time>
      </trkpt>
      <trkpt lat="46.57769" lon="0.35144">
        <ele>80.53</ele>
        <time>2023-06-07T19:24:26.428Z</time>
      </trkpt>
      <trkpt lat="46.57776" lon="0.35135">
        <ele>80.51</ele>
        <time>2023-06-07T19:24:28.208Z</time>
      </trkpt>
      <trkpt lat="46.57779" lon="0.3513">
        <ele>80.47</ele>
        <time>2023-06-07T19:24:29.989Z</time>
      </trkpt>
      <trkpt lat="46.57785" lon="0.35122">
        <ele>80.38</ele>
        <time>2023-06-07T19:24:31.771Z</time>
      </trkpt>
      <trkpt lat="46.57795" lon="0.35108">
        <ele>80.2</ele>
        <time>2023-06-07T19:24:33.555Z</time>
      </trkpt>
      <trkpt lat="46.57799" lon="0.35103">
        <ele>80.13</ele>
        <time>2023-06-07T19:24:35.340Z</time>
      </trkpt>
      <trkpt lat="46.57805" lon="0.35099">
        <ele>80.06</ele>
        <time>2023-06-07T19:24:37.126Z</time>
      </trkpt>
      <trkpt lat="46.5781" lon="0.35096">
        <ele>79.89</ele>
        <time>2023-06-07T19:24:38.913Z</time>
      </trkpt>
      <trkpt lat="46.57813" lon="0.35097">
        <ele>79.81</ele>
        <time>2023-06-07T19:24:40.700Z</time>
      </trkpt>
      <trkpt lat="46.57818" lon="0.35098">
        <ele>79.6</ele>
        <time>2023-06-07T19:24:42.488Z</time>
      </trkpt>
      <trkpt lat="46.57825" lon="0.35097">
        <ele>79.34</ele>
        <time>2023-06-07T19:24:44.277Z</time>
      </trkpt>
      <trkpt lat="46.57826" lon="0.35099">
        <ele>79.29</ele>
        <time>2023-06-07T19:24:46.067Z</time>
      </trkpt>
      <trkpt lat="46.57829" lon="0.35105">
        <ele>79.13</ele>
        <time>2023-06-07T19:24:47.857Z</time>
      </trkpt>
      <trkpt lat="46.57834" lon="0.35112">
        <ele>78.94</ele>
        <time>2023-06-07T19:24:49.649Z</time>
      </trkpt>
      <trkpt lat="46.57843" lon="0.35123">
        <ele>78.64</ele>
        <time>2023-06-07T19:24:51.443Z</time>
      </trkpt>
      <trkpt lat="46.57847" lon="0.35128">
        <ele>78.48</ele>
        <time>2023-06-07T19:24:53.237Z</time>
      </trkpt>
      <trkpt lat="46.57856" lon="0.35141">
        <ele>78.11</ele>
        <time>2023-06-07T19:24:55.033Z</time>
      </trkpt>
      <trkpt lat="46.57865" lon="0.35155">
        <ele>77.75</ele>
        <time>2023-06-07T19:24:56.831Z</time>
      </trkpt>
      <trkpt lat="46.57874" lon="0.35168">
        <ele>77.43</ele>
        <time>2023-06-07T19:24:58.632Z</time>
      </trkpt>
      <trkpt lat="46.57883" lon="0.35182">
        <ele>77.17</ele>
        <time>2023-06-07T19:25:00.435Z</time>
      </trkpt>
      <trkpt lat="46.57889" lon="0.35191">
        <ele>77.02</ele>
        <time>2023-06-07T19:25:02.239Z</time>
      </trkpt>
      <trkpt lat="46.57895" lon="0.352">
        <ele>76.9</ele>
        <time>2023-06-07T19:25:04.044Z</time>
      </trkpt>
      <trkpt lat="46.57896" lon="0.35202">
        <ele>76.88</ele>
        <time>2023-06-07T19:25:05.850Z</time>
      </trkpt>
      <trkpt lat="46.57901" lon="0.35209">
        <ele>76.84</ele>
        <time>2023-06-07T19:25:07.657Z</time>
      </trkpt>
      <trkpt lat="46.57911" lon="0.35222">
        <ele>76.81</ele>
        <time>2023-06-07T19:25:09.466Z</time>
      </trkpt>
      <trkpt lat="46.57912" lon="0.35223">
        <ele>76.76</ele>
        <time>2023-06-07T19:25:11.275Z</time>
      </trkpt>
      <trkpt lat="46.57916" lon="0.35228">
        <ele>76.75</ele>
        <time>2023-06-07T19:25:13.085Z</time>
      </trkpt>
      <trkpt lat="46.57922" lon="0.35235">
        <ele>76.75</ele>
        <time>2023-06-07T19:25:14.896Z</time>
      </trkpt>
      <trkpt lat="46.57936" lon="0.3525">
        <ele>76.69</ele>
        <time>2023-06-07T19:25:16.710Z</time>
      </trkpt>
      <trkpt lat="46.57941" lon="0.35255">
        <ele>76.69</ele>
        <time>2023-06-07T19:25:18.525Z</time>
      </trkpt>
      <trkpt lat="46.57949" lon="0.35261">
        <ele>76.71</ele>
        <time>2023-06-07T19:25:20.341Z</time>
      </trkpt>
      <trkpt lat="46.57954" lon="0.35264">
        <ele>76.72</ele>
        <time>2023-06-07T19:25:22.158Z</time>
      </trkpt>
      <trkpt lat="46.57966" lon="0.3527">
        <ele>76.76</ele>
        <time>2023-06-07T19:25:23.977Z</time>
      </trkpt>
      <trkpt lat="46.57971" lon="0.35272">
        <ele>76.78</ele>
        <time>2023-06-07T19:25:25.797Z</time>
      </trkpt>
      <trkpt lat="46.57996" lon="0.35276">
        <ele>76.91</ele>
        <time>2023-06-07T19:25:27.621Z</time>
      </trkpt>
      <trkpt lat="46.58001" lon="0.35277">
        <ele>78.06</ele>
        <time>2023-06-07T19:25:29.446Z</time>
      </trkpt>
      <trkpt lat="46.58004" lon="0.35265">
        <ele>79.93</ele>
        <time>2023-06-07T19:25:31.272Z</time>
      </trkpt>
      <trkpt lat="46.58007" lon="0.35249">
        <ele>80.05</ele>
        <time>2023-06-07T19:25:33.100Z</time>
      </trkpt>
      <trkpt lat="46.5801" lon="0.35233">
        <ele>80.26</ele>
        <time>2023-06-07T19:25:34.930Z</time>
      </trkpt>
      <trkpt lat="46.58014" lon="0.35215">
        <ele>83.34</ele>
        <time>2023-06-07T19:25:36.762Z</time>
      </trkpt>
      <trkpt lat="46.58016" lon="0.35207">
        <ele>84.25</ele>
        <time>2023-06-07T19:25:38.595Z</time>
      </trkpt>
      <trkpt lat="46.58017" lon="0.35192">
        <ele>85.95</ele>
        <time>2023-06-07T19:25:40.430Z</time>
      </trkpt>
      <trkpt lat="46.58019" lon="0.35174">
        <ele>84.21</ele>
        <time>2023-06-07T19:25:42.267Z</time>
      </trkpt>
      <trkpt lat="46.58021" lon="0.35155">
        <ele>82.56</ele>
        <time>2023-06-07T19:25:44.106Z</time>
      </trkpt>
      <trkpt lat="46.58022" lon="0.35147">
        <ele>82.7</ele>
        <time>2023-06-07T19:25:45.946Z</time>
      </trkpt>
      <trkpt lat="46.58013" lon="0.35144">
        <ele>82.94</ele>
        <time>2023-06-07T19:25:47.787Z</time>
      </trkpt>
      <trkpt lat="46.58006" lon="0.35141">
        <ele>83.07</ele>
        <time>2023-06-07T19:25:49.629Z</time>
      </trkpt>
      <trkpt lat="46.58" lon="0.35139">
        <ele>83.24</ele>
        <time>2023-06-07T19:25:51.472Z</time>
      </trkpt>
      <trkpt lat="46.57991" lon="0.35134">
        <ele>83.53</ele>
        <time>2023-06-07T19:25:53.317Z</time>
      </trkpt>
      <trkpt lat="46.57981" lon="0.35129">
        <ele>84</ele>
        <time>2023-06-07T19:25:55.164Z</time>
      </trkpt>
      <trkpt lat="46.57981" lon="0.35129">
        <ele>84</ele>
        <time>2023-06-07T19:25:57.011Z</time>
      </trkpt>
      <trkpt lat="46.5798" lon="0.35121">
        <ele>84.23</ele>
        <time>2023-06-07T19:25:58.858Z</time>
      </trkpt>
      <trkpt lat="46.5799" lon="0.35084">
        <ele>85.46</ele>
        <time>2023-06-07T19:26:00.710Z</time>
      </trkpt>
      <trkpt lat="46.57992" lon="0.35077">
        <ele>85.76</ele>
        <time>2023-06-07T19:26:02.563Z</time>
      </trkpt>
      <trkpt lat="46.57997" lon="0.35061">
        <ele>86.47</ele>
        <time>2023-06-07T19:26:04.418Z</time>
      </trkpt>
      <trkpt lat="46.58001" lon="0.35049">
        <ele>87.05</ele>
        <time>2023-06-07T19:26:06.274Z</time>
      </trkpt>
      <trkpt lat="46.58005" lon="0.35038">
        <ele>87.72</ele>
        <time>2023-06-07T19:26:08.131Z</time>
      </trkpt>
      <trkpt lat="46.58014" lon="0.35009">
        <ele>89.48</ele>
        <time>2023-06-07T19:26:09.992Z</time>
      </trkpt>
      <trkpt lat="46.58016" lon="0.35002">
        <ele>89.55</ele>
        <time>2023-06-07T19:26:11.854Z</time>
      </trkpt>
      <trkpt lat="46.58022" lon="0.35007">
        <ele>89.65</ele>
        <time>2023-06-07T19:26:13.717Z</time>
      </trkpt>
      <trkpt lat="46.58033" lon="0.35015">
        <ele>89.89</ele>
        <time>2023-06-07T19:26:15.582Z</time>
      </trkpt>
      <trkpt lat="46.5804" lon="0.35021">
        <ele>90.11</ele>
        <time>2023-06-07T19:26:17.448Z</time>
      </trkpt>
      <trkpt lat="46.58051" lon="0.35029">
        <ele>90.48</ele>
        <time>2023-06-07T19:26:19.316Z</time>
      </trkpt>
      <trkpt lat="46.58056" lon="0.35033">
        <ele>90.59</ele>
        <time>2023-06-07T19:26:21.185Z</time>
      </trkpt>
      <trkpt lat="46.58057" lon="0.35029">
        <ele>90.66</ele>
        <time>2023-06-07T19:26:23.055Z</time>
      </trkpt>
      <trkpt lat="46.58064" lon="0.35007">
        <ele>91.08</ele>
        <time>2023-06-07T19:26:24.927Z</time>
      </trkpt>
      <trkpt lat="46.58067" lon="0.34996">
        <ele>91.32</ele>
        <time>2023-06-07T19:26:26.801Z</time>
      </trkpt>
      <trkpt lat="46.58076" lon="0.34967">
        <ele>91.98</ele>
        <time>2023-06-07T19:26:28.678Z</time>
      </trkpt>
      <trkpt lat="46.58078" lon="0.3496">
        <ele>92.22</ele>
        <time>2023-06-07T19:26:30.556Z</time>
      </trkpt>
      <trkpt lat="46.58081" lon="0.3495">
        <ele>92.55</ele>
        <time>2023-06-07T19:26:32.435Z</time>
      </trkpt>
      <trkpt lat="46.58092" lon="0.34923">
        <ele>93.6</ele>
        <time>2023-06-07T19:26:34.318Z</time>
      </trkpt>
      <trkpt lat="46.58098" lon="0.34906">
        <ele>94.18</ele>
        <time>2023-06-07T19:26:36.203Z</time>
      </trkpt>
      <trkpt lat="46.581" lon="0.34898">
        <ele>94.33</ele>
        <time>2023-06-07T19:26:38.089Z</time>
      </trkpt>
      <trkpt lat="46.58103" lon="0.34891">
        <ele>94.4</ele>
        <time>2023-06-07T19:26:39.976Z</time>
      </trkpt>
      <trkpt lat="46.58098" lon="0.34882">
        <ele>94.52</ele>
        <time>2023-06-07T19:26:41.864Z</time>
      </trkpt>
      <trkpt lat="46.58097" lon="0.34881">
        <ele>94.55</ele>
        <time>2023-06-07T19:26:43.752Z</time>
      </trkpt>
      <trkpt lat="46.58086" lon="0.34872">
        <ele>94.62</ele>
        <time>2023-06-07T19:26:45.642Z</time>
      </trkpt>
      <trkpt lat="46.58083" lon="0.3487">
        <ele>94.7</ele>
        <time>2023-06-07T19:26:47.533Z</time>
      </trkpt>
      <trkpt lat="46.58079" lon="0.34866">
        <ele>94.76</ele>
        <time>2023-06-07T19:26:49.424Z</time>
      </trkpt>
      <trkpt lat="46.58067" lon="0.34859">
        <ele>94.92</ele>
        <time>2023-06-07T19:26:51.317Z</time>
      </trkpt>
      <trkpt lat="46.58062" lon="0.34856">
        <ele>95.06</ele>
        <time>2023-06-07T19:26:53.211Z</time>
      </trkpt>
      <trkpt lat="46.58068" lon="0.34841">
        <ele>95.4</ele>
        <time>2023-06-07T19:26:55.107Z</time>
      </trkpt>
      <trkpt lat="46.58069" lon="0.34838">
        <ele>95.47</ele>
        <time>2023-06-07T19:26:57.004Z</time>
      </trkpt>
      <trkpt lat="46.5806" lon="0.3483">
        <ele>95.8</ele>
        <time>2023-06-07T19:26:58.902Z</time>
      </trkpt>
      <trkpt lat="46.58058" lon="0.34828">
        <ele>96</ele>
        <time>2023-06-07T19:27:00.801Z</time>
      </trkpt>
      <trkpt lat="46.58056" lon="0.34826">
        <ele>96.05</ele>
        <time>2023-06-07T19:27:02.700Z</time>
      </trkpt>
      <trkpt lat="46.58058" lon="0.34817">
        <ele>96.2</ele>
        <time>2023-06-07T19:27:04.600Z</time>
      </trkpt>
      <trkpt lat="46.5806" lon="0.34811">
        <ele>96.33</ele>
        <time>2023-06-07T19:27:06.501Z</time>
      </trkpt>
      <trkpt lat="46.58063" lon="0.34799">
        <ele>96.62</ele>
        <time>2023-06-07T19:27:08.403Z</time>
      </trkpt>
      <trkpt lat="46.58066" lon="0.34787">
        <ele>96.95</ele>
        <time>2023-06-07T19:27:10.307Z</time>
      </trkpt>
      <trkpt lat="46.58068" lon="0.34781">
        <ele>97.18</ele>
        <time>2023-06-07T19:27:12.211Z</time>
      </trkpt>
      <trkpt lat="46.58076" lon="0.34766">
        <ele>97.93</ele>
        <time>2023-06-07T19:27:14.117Z</time>
      </trkpt>
      <trkpt lat="46.58082" lon="0.34756">
        <ele>98.46</ele>
        <time>2023-06-07T19:27:16.025Z</time>
      </trkpt>
      <trkpt lat="46.58087" lon="0.34746">
        <ele>99.02</ele>
        <time>2023-06-07T19:27:17.934Z</time>
      </trkpt>
      <trkpt lat="46.58101" lon="0.3472">
        <ele>100.51</ele>
        <time>2023-06-07T19:27:19.847Z</time>
      </trkpt>
      <trkpt lat="46.58108" lon="0.34707">
        <ele>101.28</ele>
        <time>2023-06-07T19:27:21.762Z</time>
      </trkpt>
      <trkpt lat="46.58115" lon="0.34688">
        <ele>102.26</ele>
        <time>2023-06-07T19:27:23.679Z</time>
      </trkpt>
      <trkpt lat="46.58133" lon="0.34636">
        <ele>105.03</ele>
        <time>2023-06-07T19:27:25.602Z</time>
      </trkpt>
    </trkseg>
  </trk>
</gpx>